sensor_id;sensor_type;location;lat;lon;timestamp;P1;durP1;ratioP1;P2;durP2;ratioP2
29816;SDS011;16805;52.956;5.906;2022-07-12T00:01:56;5.07;;;4.57;;
29816;SDS011;16805;52.956;5.906;2022-07-12T00:04:22;6.13;;;4.57;;
29816;SDS011;16805;52.956;5.906;2022-07-12T00:06:48;4.28;;;3.90;;
29816;SDS011;16805;52.956;5.906;2022-07-12T00:09:13;5.47;;;4.97;;
29816;SDS011;16805;52.956;5.906;2022-07-12T00:11:39;5.07;;;4.60;;
29816;SDS011;16805;52.956;5.906;2022-07-12T00:14:05;5.35;;;4.82;;
29816;SDS011;16805;52.956;5.906;2022-07-12T00:16:31;4.43;;;4.05;;
29816;SDS011;16805;52.956;5.906;2022-07-12T00:18:57;5.35;;;4.65;;
29816;SDS011;16805;52.956;5.906;2022-07-12T00:21:22;4.38;;;3.70;;
29816;SDS011;16805;52.956;5.906;2022-07-12T00:23:48;4.78;;;4.38;;
29816;SDS011;16805;52.956;5.906;2022-07-12T00:26:14;4.85;;;4.45;;
29816;SDS011;16805;52.956;5.906;2022-07-12T00:28:39;5.72;;;4.38;;
29816;SDS011;16805;52.956;5.906;2022-07-12T00:31:05;4.40;;;3.65;;
29816;SDS011;16805;52.956;5.906;2022-07-12T00:33:31;3.92;;;3.63;;
29816;SDS011;16805;52.956;5.906;2022-07-12T00:35:56;2.95;;;2.65;;
29816;SDS011;16805;52.956;5.906;2022-07-12T00:38:22;3.80;;;3.45;;
29816;SDS011;16805;52.956;5.906;2022-07-12T00:40:48;3.88;;;3.45;;
29816;SDS011;16805;52.956;5.906;2022-07-12T00:43:16;5.35;;;3.80;;
29816;SDS011;16805;52.956;5.906;2022-07-12T00:45:42;3.70;;;3.40;;
29816;SDS011;16805;52.956;5.906;2022-07-12T00:48:08;5.60;;;3.50;;
29816;SDS011;16805;52.956;5.906;2022-07-12T00:50:34;3.42;;;3.10;;
29816;SDS011;16805;52.956;5.906;2022-07-12T00:53:01;3.05;;;2.72;;
29816;SDS011;16805;52.956;5.906;2022-07-12T00:55:27;3.17;;;2.75;;
29816;SDS011;16805;52.956;5.906;2022-07-12T00:57:53;3.28;;;2.92;;
29816;SDS011;16805;52.956;5.906;2022-07-12T01:00:25;3.00;;;2.70;;
29816;SDS011;16805;52.956;5.906;2022-07-12T01:02:54;2.85;;;2.65;;
29816;SDS011;16805;52.956;5.906;2022-07-12T01:05:21;3.50;;;3.20;;
29816;SDS011;16805;52.956;5.906;2022-07-12T01:08:05;3.50;;;2.80;;
29816;SDS011;16805;52.956;5.906;2022-07-12T01:10:32;3.22;;;2.83;;
29816;SDS011;16805;52.956;5.906;2022-07-12T01:12:58;3.88;;;3.47;;
29816;SDS011;16805;52.956;5.906;2022-07-12T01:15:25;2.92;;;2.63;;
29816;SDS011;16805;52.956;5.906;2022-07-12T01:17:51;2.70;;;2.50;;
29816;SDS011;16805;52.956;5.906;2022-07-12T01:20:17;3.60;;;2.60;;
29816;SDS011;16805;52.956;5.906;2022-07-12T01:22:51;2.60;;;2.35;;
29816;SDS011;16805;52.956;5.906;2022-07-12T01:25:18;2.92;;;2.63;;
29816;SDS011;16805;52.956;5.906;2022-07-12T01:27:44;4.55;;;2.70;;
29816;SDS011;16805;52.956;5.906;2022-07-12T01:30:10;3.40;;;3.10;;
29816;SDS011;16805;52.956;5.906;2022-07-12T01:32:36;3.42;;;3.13;;
29816;SDS011;16805;52.956;5.906;2022-07-12T01:35:05;3.08;;;2.78;;
29816;SDS011;16805;52.956;5.906;2022-07-12T01:37:35;2.97;;;2.60;;
29816;SDS011;16805;52.956;5.906;2022-07-12T01:40:04;3.38;;;2.53;;
29816;SDS011;16805;52.956;5.906;2022-07-12T01:42:31;3.38;;;2.90;;
29816;SDS011;16805;52.956;5.906;2022-07-12T01:44:57;4.28;;;2.97;;
29816;SDS011;16805;52.956;5.906;2022-07-12T01:47:24;4.47;;;2.97;;
29816;SDS011;16805;52.956;5.906;2022-07-12T01:49:52;3.50;;;3.08;;
29816;SDS011;16805;52.956;5.906;2022-07-12T01:52:17;3.33;;;3.03;;
29816;SDS011;16805;52.956;5.906;2022-07-12T01:54:44;3.65;;;2.60;;
29816;SDS011;16805;52.956;5.906;2022-07-12T01:57:10;2.50;;;2.30;;
29816;SDS011;16805;52.956;5.906;2022-07-12T01:59:55;2.83;;;2.63;;
29816;SDS011;16805;52.956;5.906;2022-07-12T02:02:24;2.78;;;2.53;;
29816;SDS011;16805;52.956;5.906;2022-07-12T02:04:52;2.47;;;2.17;;
29816;SDS011;16805;52.956;5.906;2022-07-12T02:07:19;2.88;;;2.45;;
29816;SDS011;16805;52.956;5.906;2022-07-12T02:09:45;3.05;;;2.50;;
29816;SDS011;16805;52.956;5.906;2022-07-12T02:12:11;2.97;;;2.58;;
29816;SDS011;16805;52.956;5.906;2022-07-12T02:14:37;2.95;;;2.22;;
29816;SDS011;16805;52.956;5.906;2022-07-12T02:17:02;3.33;;;2.90;;
29816;SDS011;16805;52.956;5.906;2022-07-12T02:19:28;2.97;;;2.67;;
29816;SDS011;16805;52.956;5.906;2022-07-12T02:21:53;3.25;;;2.92;;
29816;SDS011;16805;52.956;5.906;2022-07-12T02:24:19;4.28;;;3.88;;
29816;SDS011;16805;52.956;5.906;2022-07-12T02:26:45;3.17;;;2.88;;
29816;SDS011;16805;52.956;5.906;2022-07-12T02:29:10;3.13;;;2.72;;
29816;SDS011;16805;52.956;5.906;2022-07-12T02:31:36;3.10;;;2.72;;
29816;SDS011;16805;52.956;5.906;2022-07-12T02:34:02;6.20;;;3.00;;
29816;SDS011;16805;52.956;5.906;2022-07-12T02:36:29;3.72;;;2.72;;
29816;SDS011;16805;52.956;5.906;2022-07-12T02:38:54;2.50;;;2.30;;
29816;SDS011;16805;52.956;5.906;2022-07-12T02:41:20;3.90;;;2.83;;
29816;SDS011;16805;52.956;5.906;2022-07-12T02:43:46;2.50;;;2.13;;
29816;SDS011;16805;52.956;5.906;2022-07-12T02:46:12;2.95;;;2.40;;
29816;SDS011;16805;52.956;5.906;2022-07-12T02:48:41;5.22;;;2.88;;
29816;SDS011;16805;52.956;5.906;2022-07-12T02:51:07;2.83;;;2.55;;
29816;SDS011;16805;52.956;5.906;2022-07-12T02:53:34;2.83;;;2.58;;
29816;SDS011;16805;52.956;5.906;2022-07-12T02:56:00;3.45;;;2.75;;
29816;SDS011;16805;52.956;5.906;2022-07-12T02:58:26;4.32;;;3.30;;
29816;SDS011;16805;52.956;5.906;2022-07-12T03:00:52;5.68;;;2.35;;
29816;SDS011;16805;52.956;5.906;2022-07-12T03:03:17;4.60;;;3.40;;
29816;SDS011;16805;52.956;5.906;2022-07-12T03:05:43;3.17;;;2.80;;
29816;SDS011;16805;52.956;5.906;2022-07-12T03:08:09;4.55;;;3.42;;
29816;SDS011;16805;52.956;5.906;2022-07-12T03:10:36;3.83;;;3.25;;
29816;SDS011;16805;52.956;5.906;2022-07-12T03:13:02;3.85;;;3.15;;
29816;SDS011;16805;52.956;5.906;2022-07-12T03:15:29;8.90;;;3.95;;
29816;SDS011;16805;52.956;5.906;2022-07-12T03:17:55;3.60;;;2.90;;
29816;SDS011;16805;52.956;5.906;2022-07-12T03:20:21;3.75;;;3.00;;
29816;SDS011;16805;52.956;5.906;2022-07-12T03:22:47;4.22;;;2.90;;
29816;SDS011;16805;52.956;5.906;2022-07-12T03:25:16;7.32;;;2.75;;
29816;SDS011;16805;52.956;5.906;2022-07-12T03:27:43;4.60;;;3.22;;
29816;SDS011;16805;52.956;5.906;2022-07-12T03:30:09;2.85;;;2.50;;
29816;SDS011;16805;52.956;5.906;2022-07-12T03:32:36;3.90;;;2.72;;
29816;SDS011;16805;52.956;5.906;2022-07-12T03:35:02;2.95;;;2.65;;
29816;SDS011;16805;52.956;5.906;2022-07-12T03:37:38;3.00;;;2.40;;
29816;SDS011;16805;52.956;5.906;2022-07-12T03:40:11;3.67;;;2.80;;
29816;SDS011;16805;52.956;5.906;2022-07-12T03:42:38;3.00;;;2.40;;
29816;SDS011;16805;52.956;5.906;2022-07-12T03:45:04;2.67;;;2.20;;
29816;SDS011;16805;52.956;5.906;2022-07-12T03:47:30;2.65;;;2.20;;
29816;SDS011;16805;52.956;5.906;2022-07-12T03:50:06;2.40;;;2.03;;
29816;SDS011;16805;52.956;5.906;2022-07-12T03:52:33;3.03;;;2.00;;
29816;SDS011;16805;52.956;5.906;2022-07-12T03:55:00;2.95;;;2.05;;
29816;SDS011;16805;52.956;5.906;2022-07-12T03:57:27;2.35;;;1.77;;
29816;SDS011;16805;52.956;5.906;2022-07-12T03:59:53;2.70;;;1.77;;
29816;SDS011;16805;52.956;5.906;2022-07-12T04:02:19;2.03;;;1.80;;
29816;SDS011;16805;52.956;5.906;2022-07-12T04:04:45;2.20;;;1.85;;
29816;SDS011;16805;52.956;5.906;2022-07-12T04:07:11;2.03;;;1.70;;
29816;SDS011;16805;52.956;5.906;2022-07-12T04:09:37;1.73;;;1.63;;
29816;SDS011;16805;52.956;5.906;2022-07-12T04:12:02;1.52;;;1.42;;
29816;SDS011;16805;52.956;5.906;2022-07-12T04:14:29;1.70;;;1.60;;
29816;SDS011;16805;52.956;5.906;2022-07-12T04:16:54;2.33;;;1.85;;
29816;SDS011;16805;52.956;5.906;2022-07-12T04:19:21;2.22;;;2.00;;
29816;SDS011;16805;52.956;5.906;2022-07-12T04:21:52;1.85;;;1.65;;
29816;SDS011;16805;52.956;5.906;2022-07-12T04:24:21;2.03;;;1.80;;
29816;SDS011;16805;52.956;5.906;2022-07-12T04:26:48;2.35;;;1.80;;
29816;SDS011;16805;52.956;5.906;2022-07-12T04:29:14;2.90;;;1.77;;
29816;SDS011;16805;52.956;5.906;2022-07-12T04:31:40;2.95;;;1.98;;
29816;SDS011;16805;52.956;5.906;2022-07-12T04:34:06;2.03;;;1.73;;
29816;SDS011;16805;52.956;5.906;2022-07-12T04:36:32;4.60;;;2.83;;
29816;SDS011;16805;52.956;5.906;2022-07-12T04:38:58;2.75;;;2.13;;
29816;SDS011;16805;52.956;5.906;2022-07-12T04:41:23;2.40;;;2.10;;
29816;SDS011;16805;52.956;5.906;2022-07-12T04:43:49;3.33;;;2.25;;
29816;SDS011;16805;52.956;5.906;2022-07-12T04:46:15;5.38;;;2.22;;
29816;SDS011;16805;52.956;5.906;2022-07-12T04:48:41;2.33;;;2.05;;
29816;SDS011;16805;52.956;5.906;2022-07-12T04:51:06;3.33;;;2.70;;
29816;SDS011;16805;52.956;5.906;2022-07-12T04:53:32;4.85;;;2.65;;
29816;SDS011;16805;52.956;5.906;2022-07-12T04:55:58;2.90;;;2.30;;
29816;SDS011;16805;52.956;5.906;2022-07-12T04:58:23;3.33;;;2.08;;
29816;SDS011;16805;52.956;5.906;2022-07-12T05:00:49;2.20;;;2.00;;
29816;SDS011;16805;52.956;5.906;2022-07-12T05:03:15;2.60;;;2.17;;
29816;SDS011;16805;52.956;5.906;2022-07-12T05:05:41;2.65;;;2.20;;
29816;SDS011;16805;52.956;5.906;2022-07-12T05:08:07;2.40;;;2.08;;
29816;SDS011;16805;52.956;5.906;2022-07-12T05:10:33;2.58;;;1.73;;
29816;SDS011;16805;52.956;5.906;2022-07-12T05:12:59;2.67;;;2.13;;
29816;SDS011;16805;52.956;5.906;2022-07-12T05:15:25;2.85;;;2.30;;
29816;SDS011;16805;52.956;5.906;2022-07-12T05:17:50;2.35;;;2.15;;
29816;SDS011;16805;52.956;5.906;2022-07-12T05:20:16;2.47;;;2.13;;
29816;SDS011;16805;52.956;5.906;2022-07-12T05:22:42;2.80;;;2.17;;
29816;SDS011;16805;52.956;5.906;2022-07-12T05:25:08;3.00;;;2.25;;
29816;SDS011;16805;52.956;5.906;2022-07-12T05:27:34;2.70;;;1.92;;
29816;SDS011;16805;52.956;5.906;2022-07-12T05:30:00;3.95;;;2.17;;
29816;SDS011;16805;52.956;5.906;2022-07-12T05:32:26;2.30;;;2.10;;
29816;SDS011;16805;52.956;5.906;2022-07-12T05:34:52;2.55;;;2.00;;
29816;SDS011;16805;52.956;5.906;2022-07-12T05:37:18;2.92;;;2.35;;
29816;SDS011;16805;52.956;5.906;2022-07-12T05:39:43;2.20;;;2.00;;
29816;SDS011;16805;52.956;5.906;2022-07-12T05:42:09;4.65;;;2.50;;
29816;SDS011;16805;52.956;5.906;2022-07-12T05:44:35;2.30;;;1.90;;
29816;SDS011;16805;52.956;5.906;2022-07-12T05:47:00;3.28;;;2.38;;
29816;SDS011;16805;52.956;5.906;2022-07-12T05:49:26;3.13;;;2.25;;
29816;SDS011;16805;52.956;5.906;2022-07-12T05:51:52;3.08;;;2.75;;
29816;SDS011;16805;52.956;5.906;2022-07-12T05:54:36;2.88;;;2.40;;
29816;SDS011;16805;52.956;5.906;2022-07-12T05:57:01;3.10;;;2.70;;
29816;SDS011;16805;52.956;5.906;2022-07-12T05:59:27;3.25;;;2.92;;
29816;SDS011;16805;52.956;5.906;2022-07-12T06:01:54;3.13;;;2.85;;
29816;SDS011;16805;52.956;5.906;2022-07-12T06:04:19;3.20;;;2.70;;
29816;SDS011;16805;52.956;5.906;2022-07-12T06:06:45;2.92;;;2.50;;
29816;SDS011;16805;52.956;5.906;2022-07-12T06:09:11;3.50;;;2.60;;
29816;SDS011;16805;52.956;5.906;2022-07-12T06:11:36;2.40;;;2.20;;
29816;SDS011;16805;52.956;5.906;2022-07-12T06:14:02;3.40;;;2.17;;
29816;SDS011;16805;52.956;5.906;2022-07-12T06:16:28;3.60;;;2.53;;
29816;SDS011;16805;52.956;5.906;2022-07-12T06:18:55;3.22;;;2.92;;
29816;SDS011;16805;52.956;5.906;2022-07-12T06:21:20;2.97;;;2.67;;
29816;SDS011;16805;52.956;5.906;2022-07-12T06:23:46;2.72;;;2.53;;
29816;SDS011;16805;52.956;5.906;2022-07-12T06:26:11;3.95;;;2.53;;
29816;SDS011;16805;52.956;5.906;2022-07-12T06:28:37;2.60;;;2.35;;
29816;SDS011;16805;52.956;5.906;2022-07-12T06:31:03;2.58;;;2.38;;
29816;SDS011;16805;52.956;5.906;2022-07-12T06:33:28;2.38;;;2.17;;
29816;SDS011;16805;52.956;5.906;2022-07-12T06:35:54;2.00;;;1.90;;
29816;SDS011;16805;52.956;5.906;2022-07-12T06:38:20;2.35;;;2.15;;
29816;SDS011;16805;52.956;5.906;2022-07-12T06:40:45;3.15;;;2.75;;
29816;SDS011;16805;52.956;5.906;2022-07-12T06:43:11;2.50;;;2.30;;
29816;SDS011;16805;52.956;5.906;2022-07-12T06:45:38;2.53;;;2.33;;
29816;SDS011;16805;52.956;5.906;2022-07-12T06:48:23;2.15;;;1.90;;
29816;SDS011;16805;52.956;5.906;2022-07-12T06:50:49;2.83;;;2.60;;
29816;SDS011;16805;52.956;5.906;2022-07-12T06:53:15;3.00;;;2.65;;
29816;SDS011;16805;52.956;5.906;2022-07-12T06:55:42;2.42;;;2.22;;
29816;SDS011;16805;52.956;5.906;2022-07-12T06:58:08;2.40;;;2.20;;
29816;SDS011;16805;52.956;5.906;2022-07-12T07:00:34;3.67;;;2.20;;
29816;SDS011;16805;52.956;5.906;2022-07-12T07:02:59;3.47;;;2.65;;
29816;SDS011;16805;52.956;5.906;2022-07-12T07:05:25;3.00;;;2.80;;
29816;SDS011;16805;52.956;5.906;2022-07-12T07:07:51;2.90;;;2.70;;
29816;SDS011;16805;52.956;5.906;2022-07-12T07:10:16;2.35;;;2.15;;
29816;SDS011;16805;52.956;5.906;2022-07-12T07:12:42;2.08;;;1.98;;
29816;SDS011;16805;52.956;5.906;2022-07-12T07:15:08;2.95;;;2.30;;
29816;SDS011;16805;52.956;5.906;2022-07-12T07:17:34;2.65;;;2.30;;
29816;SDS011;16805;52.956;5.906;2022-07-12T07:20:00;3.42;;;2.80;;
29816;SDS011;16805;52.956;5.906;2022-07-12T07:22:25;2.88;;;2.67;;
29816;SDS011;16805;52.956;5.906;2022-07-12T07:24:52;3.15;;;2.95;;
29816;SDS011;16805;52.956;5.906;2022-07-12T07:27:18;4.90;;;2.60;;
29816;SDS011;16805;52.956;5.906;2022-07-12T07:29:43;3.20;;;2.70;;
29816;SDS011;16805;52.956;5.906;2022-07-12T07:32:28;2.88;;;2.67;;
29816;SDS011;16805;52.956;5.906;2022-07-12T07:34:54;4.03;;;2.92;;
29816;SDS011;16805;52.956;5.906;2022-07-12T07:37:19;3.15;;;2.85;;
29816;SDS011;16805;52.956;5.906;2022-07-12T07:39:45;2.80;;;2.60;;
29816;SDS011;16805;52.956;5.906;2022-07-12T07:42:10;2.70;;;2.42;;
29816;SDS011;16805;52.956;5.906;2022-07-12T07:44:36;2.90;;;2.70;;
29816;SDS011;16805;52.956;5.906;2022-07-12T07:47:02;3.38;;;3.08;;
29816;SDS011;16805;52.956;5.906;2022-07-12T07:49:27;3.00;;;2.70;;
29816;SDS011;16805;52.956;5.906;2022-07-12T07:51:53;2.60;;;2.40;;
29816;SDS011;16805;52.956;5.906;2022-07-12T07:54:19;3.30;;;2.97;;
29816;SDS011;16805;52.956;5.906;2022-07-12T07:56:45;2.80;;;2.60;;
29816;SDS011;16805;52.956;5.906;2022-07-12T07:59:10;3.15;;;2.65;;
29816;SDS011;16805;52.956;5.906;2022-07-12T08:01:36;3.03;;;2.63;;
29816;SDS011;16805;52.956;5.906;2022-07-12T08:04:11;2.83;;;2.45;;
29816;SDS011;16805;52.956;5.906;2022-07-12T08:06:38;5.10;;;2.80;;
29816;SDS011;16805;52.956;5.906;2022-07-12T08:09:04;2.63;;;2.42;;
29816;SDS011;16805;52.956;5.906;2022-07-12T08:11:30;3.42;;;3.13;;
29816;SDS011;16805;52.956;5.906;2022-07-12T08:13:56;6.55;;;2.90;;
29816;SDS011;16805;52.956;5.906;2022-07-12T08:16:22;3.40;;;3.10;;
29816;SDS011;16805;52.956;5.906;2022-07-12T08:18:48;3.63;;;3.33;;
29816;SDS011;16805;52.956;5.906;2022-07-12T08:21:13;3.72;;;3.42;;
29816;SDS011;16805;52.956;5.906;2022-07-12T08:23:39;3.92;;;3.53;;
29816;SDS011;16805;52.956;5.906;2022-07-12T08:26:05;3.22;;;2.90;;
29816;SDS011;16805;52.956;5.906;2022-07-12T08:28:30;3.40;;;3.10;;
29816;SDS011;16805;52.956;5.906;2022-07-12T08:30:56;3.90;;;3.33;;
29816;SDS011;16805;52.956;5.906;2022-07-12T08:33:21;3.30;;;3.00;;
29816;SDS011;16805;52.956;5.906;2022-07-12T08:35:47;3.25;;;3.05;;
29816;SDS011;16805;52.956;5.906;2022-07-12T08:38:13;3.00;;;2.70;;
29816;SDS011;16805;52.956;5.906;2022-07-12T08:40:40;7.55;;;2.83;;
29816;SDS011;16805;52.956;5.906;2022-07-12T08:43:25;3.10;;;2.55;;
29816;SDS011;16805;52.956;5.906;2022-07-12T08:45:51;3.58;;;2.92;;
29816;SDS011;16805;52.956;5.906;2022-07-12T08:48:16;3.33;;;3.03;;
29816;SDS011;16805;52.956;5.906;2022-07-12T08:50:42;3.58;;;3.28;;
29816;SDS011;16805;52.956;5.906;2022-07-12T08:53:09;3.42;;;3.13;;
29816;SDS011;16805;52.956;5.906;2022-07-12T08:55:37;3.47;;;3.17;;
29816;SDS011;16805;52.956;5.906;2022-07-12T08:58:14;3.03;;;2.83;;
29816;SDS011;16805;52.956;5.906;2022-07-12T09:00:40;3.55;;;3.25;;
29816;SDS011;16805;52.956;5.906;2022-07-12T09:03:06;4.00;;;3.60;;
29816;SDS011;16805;52.956;5.906;2022-07-12T09:05:32;3.08;;;2.88;;
29816;SDS011;16805;52.956;5.906;2022-07-12T09:08:06;3.22;;;3.00;;
29816;SDS011;16805;52.956;5.906;2022-07-12T09:10:35;4.72;;;2.88;;
29816;SDS011;16805;52.956;5.906;2022-07-12T09:13:20;2.95;;;2.55;;
29816;SDS011;16805;52.956;5.906;2022-07-12T09:16:12;3.80;;;3.50;;
29816;SDS011;16805;52.956;5.906;2022-07-12T09:18:39;4.68;;;3.22;;
29816;SDS011;16805;52.956;5.906;2022-07-12T09:21:04;3.45;;;3.22;;
29816;SDS011;16805;52.956;5.906;2022-07-12T09:23:30;3.25;;;2.40;;
29816;SDS011;16805;52.956;5.906;2022-07-12T09:25:56;5.78;;;2.95;;
29816;SDS011;16805;52.956;5.906;2022-07-12T09:28:21;3.22;;;2.88;;
29816;SDS011;16805;52.956;5.906;2022-07-12T09:30:50;3.50;;;3.20;;
29816;SDS011;16805;52.956;5.906;2022-07-12T09:33:36;2.35;;;2.15;;
29816;SDS011;16805;52.956;5.906;2022-07-12T09:36:24;2.58;;;1.80;;
29816;SDS011;16805;52.956;5.906;2022-07-12T09:38:54;2.30;;;2.10;;
29816;SDS011;16805;52.956;5.906;2022-07-12T09:41:25;2.55;;;2.17;;
29816;SDS011;16805;52.956;5.906;2022-07-12T09:43:51;2.55;;;2.35;;
29816;SDS011;16805;52.956;5.906;2022-07-12T09:46:18;2.42;;;2.22;;
29816;SDS011;16805;52.956;5.906;2022-07-12T09:48:44;7.30;;;1.88;;
29816;SDS011;16805;52.956;5.906;2022-07-12T09:51:14;2.75;;;1.60;;
29816;SDS011;16805;52.956;5.906;2022-07-12T09:53:43;1.67;;;1.58;;
29816;SDS011;16805;52.956;5.906;2022-07-12T09:56:10;2.35;;;2.15;;
29816;SDS011;16805;52.956;5.906;2022-07-12T09:58:46;2.95;;;2.17;;
29816;SDS011;16805;52.956;5.906;2022-07-12T10:01:16;2.95;;;2.72;;
29816;SDS011;16805;52.956;5.906;2022-07-12T10:03:43;2.30;;;2.10;;
29816;SDS011;16805;52.956;5.906;2022-07-12T10:06:11;2.95;;;2.17;;
29816;SDS011;16805;52.956;5.906;2022-07-12T10:08:40;2.70;;;2.00;;
29816;SDS011;16805;52.956;5.906;2022-07-12T10:11:06;2.22;;;2.03;;
29816;SDS011;16805;52.956;5.906;2022-07-12T10:13:32;2.72;;;2.50;;
29816;SDS011;16805;52.956;5.906;2022-07-12T10:16:02;2.47;;;2.10;;
29816;SDS011;16805;52.956;5.906;2022-07-12T10:18:29;2.47;;;2.17;;
29816;SDS011;16805;52.956;5.906;2022-07-12T10:20:55;2.45;;;2.25;;
29816;SDS011;16805;52.956;5.906;2022-07-12T10:23:30;2.22;;;1.83;;
29816;SDS011;16805;52.956;5.906;2022-07-12T10:31:28;3.03;;;2.70;;
29816;SDS011;16805;52.956;5.906;2022-07-12T10:34:08;3.15;;;2.15;;
29816;SDS011;16805;52.956;5.906;2022-07-12T10:39:19;1.85;;;1.75;;
29816;SDS011;16805;52.956;5.906;2022-07-12T10:42:12;2.53;;;1.75;;
29816;SDS011;16805;52.956;5.906;2022-07-12T10:44:39;5.35;;;2.10;;
29816;SDS011;16805;52.956;5.906;2022-07-12T10:47:07;2.35;;;2.10;;
29816;SDS011;16805;52.956;5.906;2022-07-12T10:49:34;3.47;;;2.00;;
29816;SDS011;16805;52.956;5.906;2022-07-12T10:54:39;2.78;;;2.00;;
29816;SDS011;16805;52.956;5.906;2022-07-12T10:57:08;5.00;;;2.38;;
29816;SDS011;16805;52.956;5.906;2022-07-12T10:59:34;4.15;;;2.03;;
29816;SDS011;16805;52.956;5.906;2022-07-12T11:02:01;2.53;;;2.33;;
29816;SDS011;16805;52.956;5.906;2022-07-12T11:04:28;2.45;;;2.13;;
29816;SDS011;16805;52.956;5.906;2022-07-12T11:06:54;2.67;;;2.17;;
29816;SDS011;16805;52.956;5.906;2022-07-12T11:09:22;2.72;;;2.25;;
29816;SDS011;16805;52.956;5.906;2022-07-12T11:11:49;2.20;;;2.00;;
29816;SDS011;16805;52.956;5.906;2022-07-12T11:14:23;3.22;;;1.80;;
29816;SDS011;16805;52.956;5.906;2022-07-12T11:16:55;2.25;;;1.85;;
29816;SDS011;16805;52.956;5.906;2022-07-12T11:19:23;3.28;;;1.40;;
29816;SDS011;16805;52.956;5.906;2022-07-12T11:21:50;3.55;;;1.52;;
29816;SDS011;16805;52.956;5.906;2022-07-12T11:24:24;1.63;;;1.52;;
29816;SDS011;16805;52.956;5.906;2022-07-12T11:26:51;2.22;;;1.33;;
29816;SDS011;16805;52.956;5.906;2022-07-12T11:29:17;3.05;;;1.95;;
29816;SDS011;16805;52.956;5.906;2022-07-12T11:31:44;2.20;;;1.48;;
29816;SDS011;16805;52.956;5.906;2022-07-12T11:34:23;2.47;;;2.28;;
29816;SDS011;16805;52.956;5.906;2022-07-12T11:36:53;1.50;;;1.30;;
29816;SDS011;16805;52.956;5.906;2022-07-12T11:39:36;2.95;;;1.77;;
29816;SDS011;16805;52.956;5.906;2022-07-12T11:42:03;2.58;;;1.98;;
29816;SDS011;16805;52.956;5.906;2022-07-12T11:47:30;4.60;;;2.20;;
29816;SDS011;16805;52.956;5.906;2022-07-12T11:49:57;2.63;;;1.70;;
29816;SDS011;16805;52.956;5.906;2022-07-12T11:52:23;1.70;;;1.60;;
29816;SDS011;16805;52.956;5.906;2022-07-12T11:54:49;2.25;;;2.05;;
29816;SDS011;16805;52.956;5.906;2022-07-12T11:57:19;1.90;;;1.75;;
29816;SDS011;16805;52.956;5.906;2022-07-12T11:59:46;2.08;;;1.83;;
29816;SDS011;16805;52.956;5.906;2022-07-12T12:02:12;3.70;;;2.35;;
29816;SDS011;16805;52.956;5.906;2022-07-12T12:04:50;2.60;;;2.40;;
29816;SDS011;16805;52.956;5.906;2022-07-12T12:07:18;4.00;;;2.30;;
29816;SDS011;16805;52.956;5.906;2022-07-12T12:10:00;2.38;;;1.77;;
29816;SDS011;16805;52.956;5.906;2022-07-12T12:12:26;2.97;;;2.10;;
29816;SDS011;16805;52.956;5.906;2022-07-12T12:15:03;2.40;;;1.45;;
29816;SDS011;16805;52.956;5.906;2022-07-12T12:17:30;3.50;;;1.60;;
29816;SDS011;16805;52.956;5.906;2022-07-12T12:19:56;3.50;;;1.45;;
29816;SDS011;16805;52.956;5.906;2022-07-12T12:22:34;5.40;;;1.60;;
29816;SDS011;16805;52.956;5.906;2022-07-12T12:25:02;0.80;;;0.80;;
29816;SDS011;16805;52.956;5.906;2022-07-12T12:27:30;0.80;;;0.63;;
29816;SDS011;16805;52.956;5.906;2022-07-12T12:30:06;2.50;;;0.55;;
29816;SDS011;16805;52.956;5.906;2022-07-12T12:33:32;0.50;;;0.40;;
29816;SDS011;16805;52.956;5.906;2022-07-12T12:35:23;4.35;;;0.43;;
29816;SDS011;16805;52.956;5.906;2022-07-12T12:38:00;1.10;;;0.45;;
29816;SDS011;16805;52.956;5.906;2022-07-12T12:40:35;1.17;;;0.40;;
29816;SDS011;16805;52.956;5.906;2022-07-12T12:43:09;0.50;;;0.30;;
29816;SDS011;16805;52.956;5.906;2022-07-12T12:45:36;0.75;;;0.43;;
29816;SDS011;16805;52.956;5.906;2022-07-12T12:48:17;0.60;;;0.60;;
29816;SDS011;16805;52.956;5.906;2022-07-12T12:50:46;0.65;;;0.45;;
29816;SDS011;16805;52.956;5.906;2022-07-12T12:53:18;0.50;;;0.50;;
29816;SDS011;16805;52.956;5.906;2022-07-12T12:55:46;0.45;;;0.45;;
29816;SDS011;16805;52.956;5.906;2022-07-12T12:58:13;0.65;;;0.55;;
29816;SDS011;16805;52.956;5.906;2022-07-12T13:00:41;1.38;;;0.50;;
29816;SDS011;16805;52.956;5.906;2022-07-12T13:03:10;1.85;;;0.60;;
29816;SDS011;16805;52.956;5.906;2022-07-12T13:05:40;1.35;;;0.80;;
29816;SDS011;16805;52.956;5.906;2022-07-12T13:08:07;1.42;;;0.50;;
29816;SDS011;16805;52.956;5.906;2022-07-12T13:10:34;1.15;;;0.40;;
29816;SDS011;16805;52.956;5.906;2022-07-12T13:13:01;0.75;;;0.50;;
29816;SDS011;16805;52.956;5.906;2022-07-12T13:15:28;0.60;;;0.40;;
29816;SDS011;16805;52.956;5.906;2022-07-12T13:17:54;1.27;;;0.50;;
29816;SDS011;16805;52.956;5.906;2022-07-12T13:20:20;0.70;;;0.40;;
29816;SDS011;16805;52.956;5.906;2022-07-12T13:22:46;1.20;;;0.40;;
29816;SDS011;16805;52.956;5.906;2022-07-12T13:25:12;0.70;;;0.70;;
29816;SDS011;16805;52.956;5.906;2022-07-12T13:27:39;1.90;;;0.70;;
29816;SDS011;16805;52.956;5.906;2022-07-12T13:30:06;0.60;;;0.60;;
29816;SDS011;16805;52.956;5.906;2022-07-12T13:32:34;0.50;;;0.50;;
29816;SDS011;16805;52.956;5.906;2022-07-12T13:35:01;1.38;;;0.57;;
29816;SDS011;16805;52.956;5.906;2022-07-12T13:37:27;1.10;;;0.50;;
29816;SDS011;16805;52.956;5.906;2022-07-12T13:39:53;2.78;;;0.90;;
29816;SDS011;16805;52.956;5.906;2022-07-12T13:42:38;0.40;;;0.40;;
29816;SDS011;16805;52.956;5.906;2022-07-12T13:45:09;1.92;;;0.30;;
29816;SDS011;16805;52.956;5.906;2022-07-12T13:47:36;0.75;;;0.25;;
29816;SDS011;16805;52.956;5.906;2022-07-12T13:50:03;2.17;;;0.32;;
29816;SDS011;16805;52.956;5.906;2022-07-12T13:52:29;0.47;;;0.20;;
29816;SDS011;16805;52.956;5.906;2022-07-12T13:54:55;10.32;;;0.55;;
29816;SDS011;16805;52.956;5.906;2022-07-12T13:57:21;0.35;;;0.20;;
29816;SDS011;16805;52.956;5.906;2022-07-12T13:59:47;2.30;;;0.30;;
29816;SDS011;16805;52.956;5.906;2022-07-12T14:02:31;0.40;;;0.30;;
29816;SDS011;16805;52.956;5.906;2022-07-12T14:04:56;0.20;;;0.20;;
29816;SDS011;16805;52.956;5.906;2022-07-12T14:07:22;1.40;;;0.30;;
29816;SDS011;16805;52.956;5.906;2022-07-12T14:09:48;0.38;;;0.28;;
29816;SDS011;16805;52.956;5.906;2022-07-12T14:12:14;0.65;;;0.28;;
29816;SDS011;16805;52.956;5.906;2022-07-12T14:14:40;1.95;;;0.50;;
29816;SDS011;16805;52.956;5.906;2022-07-12T14:17:24;1.30;;;0.50;;
29816;SDS011;16805;52.956;5.906;2022-07-12T14:19:50;2.13;;;0.63;;
29816;SDS011;16805;52.956;5.906;2022-07-12T14:22:15;1.23;;;0.57;;
29816;SDS011;16805;52.956;5.906;2022-07-12T14:24:41;0.82;;;0.60;;
29816;SDS011;16805;52.956;5.906;2022-07-12T14:27:07;1.38;;;0.88;;
29816;SDS011;16805;52.956;5.906;2022-07-12T14:29:33;0.75;;;0.70;;
29816;SDS011;16805;52.956;5.906;2022-07-12T14:31:59;4.20;;;1.02;;
29816;SDS011;16805;52.956;5.906;2022-07-12T14:34:26;1.65;;;0.93;;
29816;SDS011;16805;52.956;5.906;2022-07-12T14:37:10;3.10;;;1.50;;
29816;SDS011;16805;52.956;5.906;2022-07-12T14:39:36;3.38;;;3.08;;
29816;SDS011;16805;52.956;5.906;2022-07-12T14:42:01;5.55;;;3.30;;
29816;SDS011;16805;52.956;5.906;2022-07-12T14:44:27;4.53;;;2.80;;
29816;SDS011;16805;52.956;5.906;2022-07-12T14:46:53;3.15;;;2.78;;
29816;SDS011;16805;52.956;5.906;2022-07-12T14:49:19;2.90;;;2.70;;
29816;SDS011;16805;52.956;5.906;2022-07-12T14:51:45;4.80;;;2.80;;
29816;SDS011;16805;52.956;5.906;2022-07-12T14:54:11;2.20;;;1.90;;
29816;SDS011;16805;52.956;5.906;2022-07-12T14:56:37;2.30;;;2.08;;
29816;SDS011;16805;52.956;5.906;2022-07-12T14:59:02;4.40;;;1.73;;
29816;SDS011;16805;52.956;5.906;2022-07-12T15:01:28;2.85;;;1.88;;
29816;SDS011;16805;52.956;5.906;2022-07-12T15:03:54;1.27;;;1.10;;
29816;SDS011;16805;52.956;5.906;2022-07-12T15:06:20;1.95;;;0.70;;